Latest Coastal Weather Observations for Gabo Island (VIC)

IDN60701

Issued at 6:11 am EST Wednesday 4 May 2016 (issued every 10 minutes, with the page automatically refreshed every 10 minutes)

About coastal observations | Map of coastal stations | Coastal observations for NSW | Marine services | Other Formats
Station Details ID: 084016 Name: GABO ISLAND LIGHTHOUSE Lat: -37.57 Lon: 149.92 Height: 15.2 m
Data from the previous 72 hours. | See also: Recent months at Gabo Island (VIC)
Date/Time
EST
Temp

°C
Wind Pressure Rain
since 9am
mm
Weather Cloud Vis
km
Sea
Height
m
Swell
Dir
 
Speed
knots
Gust
knots
hPa Trend Height
m
Period
s
Dir
04/06:00am 12.6 WNW 9 12 1011.9 - 0.0 - - - - - - -
04/05:30am 12.8 W 10 14 1011.4 - 0.0 - - - - - - -
04/05:00am 12.8 W 10 15 1011.1 - 0.0 - - - - - - -
04/04:30am 12.6 W 12 16 1010.8 - 0.0 - - - - - - -
04/04:00am 12.7 W 10 15 1010.4 - 0.0 - - - - - - -
04/03:30am 12.8 W 13 16 1010.0 - 0.0 - - - - - - -
04/03:00am 13.1 WSW 16 21 1009.7 - 0.0 Drizzle Cloudy 30 2 1.0 - -
04/02:30am 13.2 WSW 18 22 1009.5 - 0.0 - - - - - - -
04/02:00am 13.9 WSW 16 21 1009.1 - 0.0 - - - - - - -
04/01:30am 14.2 WSW 17 23 1008.8 - 0.0 - - - - - - -
04/01:00am 14.3 WSW 22 27 1008.6 - 0.0 - - - - - - -
04/12:30am 14.8 WSW 15 20 1008.2 - 0.0 - - - - - - -
04/12:00am 15.0 W 12 15 1007.8 - 0.0 - - - - - - -
 
Date/Time
EST
Temp

°C
Wind Pressure Rain
since 9am
mm
Weather Cloud Vis
km
Sea
Height
m
Swell
Dir
 
Speed
knots
Gust
knots
hPa Trend Height
m
Period
s
Dir
03/11:49pm 14.9 W 13 22 1007.8 - 0.0 - - - - - - -
03/11:30pm 14.9 SW 22 28 1007.6 - 0.0 - - - - - - -
03/11:00pm 15.7 SW 22 29 1007.6 - 0.0 - - - - - - -
03/10:30pm 16.3 SW 25 32 1006.8 - 0.0 - - - - - - -
03/10:00pm 16.3 SW 29 35 1006.3 - 0.0 - - - - - - -
03/09:30pm 16.5 SW 29 35 1005.9 - 0.0 - - - - - - -
03/09:11pm 17.5 SSW 33 43 1004.8 - 0.0 - - - - - - -
03/09:10pm 18.0 SSW 30 37 1005.0 - 0.0 - - - - - - -
03/09:08pm 19.1 W 22 34 1004.9 - 0.0 - - - - - - -
03/09:00pm 19.7 NW 12 17 1003.6 - 0.0 Fine Partly cloudy 40 1 1.0 - -
03/08:30pm 19.1 NNW 9 13 1003.4 - 0.0 - - - - - - -
03/08:00pm 19.4 NNW 10 15 1003.1 - 0.0 - - - - - - -
03/07:30pm 19.1 N 10 14 1002.3 - 0.0 - - - - - - -
03/07:00pm 19.3 N 10 15 1002.0 - 0.0 - - - - - - -
03/06:30pm 18.9 N 8 11 1002.0 - 0.0 - - - - - - -
03/06:00pm 18.0 N 7 9 1001.4 - 0.0 - - - - - - -
03/05:30pm 17.8 N 7 8 1000.7 - 0.0 - - - - - - -
03/05:00pm 18.6 N 9 12 999.9 - 0.0 - - - - - - -
03/04:30pm 19.3 N 12 15 999.5 - 0.0 - - - - - - -
03/04:00pm 19.6 N 13 17 999.2 - 0.0 - - - - - - -
03/03:30pm 19.9 N 17 21 999.3 - 0.0 - - - - - - -
03/03:00pm 19.6 NNE 21 25 998.9 - 0.0 Fine Mostly clear 40 2 1.0 - -
03/02:30pm 19.6 NNE 20 24 999.4 - 0.0 - - - - - - -
03/02:00pm 19.5 NNE 18 23 999.9 - 0.0 - - - - - - -
03/01:30pm 19.2 NNE 20 25 1000.2 - 0.0 - - - - - - -
03/01:00pm 18.9 NE 21 26 1000.7 - 0.0 - - - - - - -
03/12:30pm 18.8 NE 20 23 1001.5 - 0.0 - - - - - - -
03/12:00pm 19.0 NE 18 22 1002.7 - 0.0 - - - - - - -
03/11:30am 21.3 N 8 13 1003.6 - 0.0 - - - - - - -
03/11:00am 19.4 NNE 11 15 1004.2 - 0.0 - - - - - - -
03/10:30am 18.8 NNE 13 17 1004.8 - 0.0 - - - - - - -
03/10:00am 19.0 N 12 14 1005.2 - 0.0 - - - - - - -
03/09:30am 17.7 NE 7 8 1005.6 - 0.0 - - - - - - -
03/09:00am 16.6 NNE 8 13 1005.7 - 0.0 Fine Clear 40 1 1.0 - -
03/08:30am 15.9 NE 5 7 1006.1 - 0.0 - - - - - - -
03/08:00am 14.8 ESE 2 5 1006.4 - 0.0 - - - - - - -
03/07:30am 12.7 SSW 5 6 1006.4 - 0.0 - - - - - - -
03/07:00am 12.0 WSW 6 9 1006.9 - 0.0 - - - - - - -
03/06:30am 10.7 N 6 8 1006.5 - 0.0 - - - - - - -
03/06:00am 10.7 NNE 5 8 1006.5 - 0.0 - - - - - - -
03/05:30am 12.7 NNW 3 4 1006.8 - 0.0 - - - - - - -
03/05:00am 11.7 N 4 5 1006.9 - 0.0 - - - - - - -
03/04:30am 11.1 N 5 6 1007.1 - 0.0 - - - - - - -
03/04:00am 11.7 N 8 10 1007.0 - 0.0 - - - - - - -
03/03:30am 11.3 N 10 11 1007.1 - 0.0 - - - - - - -
03/03:00am 11.4 N 9 11 1007.4 - 0.0 Fine Clear 40 1 1.0 - -
03/02:30am 10.6 N 7 8 1008.1 - 0.0 - - - - - - -
03/02:00am 11.1 N 8 9 1008.5 - 0.0 - - - - - - -
03/01:30am 11.9 N 9 10 1009.1 - 0.0 - - - - - - -
03/01:00am 12.3 N 9 10 1009.5 - 0.0 - - - - - - -
03/12:30am 11.9 N 8 9 1009.7 - 0.0 - - - - - - -
03/12:00am 11.3 NNW 7 9 1010.3 - 0.0 - - - - - - -
 
Date/Time
EST
Temp

°C
Wind Pressure Rain
since 9am
mm
Weather Cloud Vis
km
Sea
Height
m
Swell
Dir
 
Speed
knots
Gust
knots
hPa Trend Height
m
Period
s
Dir
02/11:30pm 11.6 NNW 6 7 1010.4 - 0.0 - - - - - - -
02/11:00pm 11.0 N 7 9 1010.6 - 0.0 - - - - - - -
02/10:30pm 11.2 N 6 7 1010.7 - 0.0 - - - - - - -
02/10:00pm 11.9 NNW 6 7 1010.8 - 0.0 - - - - - - -
02/09:30pm 11.9 NW 6 7 1011.2 - 0.0 - - - - - - -
02/09:00pm 12.6 NW 8 10 1011.3 - 0.0 Fine Clear 40 <0.5 1.0 - -
02/08:30pm 12.8 NW 8 11 1011.4 - 0.0 - - - - - - -
02/08:00pm 13.1 WNW 4 6 1011.2 - 0.0 - - - - - - -
02/07:30pm 14.0 CALM 0 0 1011.6 - 0.0 - - - - - - -
02/07:00pm 14.9 CALM 0 0 1011.8 - 0.0 - - - - - - -
02/06:30pm 15.4 SE 4 5 1011.8 - 0.0 - - - - - - -
02/06:00pm 15.7 ESE 5 6 1011.4 - 0.0 - - - - - - -
02/05:30pm 16.0 SSE 6 8 1011.6 - 0.0 - - - - - - -
02/05:00pm 16.3 SSE 7 9 1011.4 - 0.0 - - - - - - -
02/04:30pm 16.9 SSE 10 13 1011.2 - 0.0 - - - - - - -
02/04:00pm 16.9 ESE 7 9 1010.9 - 0.0 - - - - - - -
02/03:30pm 17.5 ENE 12 14 1011.0 - 0.0 - - - - - - -
02/03:00pm 17.8 ESE 7 10 1011.0 - 0.0 Fine Mostly clear 40 1 1.0 - -
02/02:30pm 17.9 E 7 10 1010.9 - 0.0 - - - - - - -
02/02:00pm 18.0 ESE 5 8 1011.0 - 0.0 - - - - - - -
02/01:30pm 18.2 ESE 6 8 1011.4 - 0.0 - - - - - - -
02/01:00pm 17.9 E 6 7 1011.7 - 0.0 - - - - - - -
02/12:30pm 18.0 ENE 6 8 1012.1 - 0.0 - - - - - - -
02/12:00pm 17.5 WSW 5 6 1012.5 - 0.0 - - - - - - -
02/11:30am 17.6 WSW 7 8 1013.0 - 0.0 - - - - - - -
02/11:00am 17.1 W 10 13 1013.5 - 0.0 - - - - - - -
02/10:30am 16.8 W 9 11 1013.9 - 0.0 - - - - - - -
02/10:00am 16.6 WNW 8 10 1014.1 - 0.0 - - - - - - -
02/09:30am 15.5 WNW 9 12 1014.4 - 0.0 - - - - - - -
02/09:00am 15.2 WNW 7 11 1014.7 - 0.0 - Mostly clear 40 <0.5 1.0 - -
02/08:30am 14.0 WNW 6 8 1015.0 - 0.0 - - - - - - -
02/08:00am 12.4 NW 6 9 1015.1 - 0.0 - - - - - - -
02/07:30am 11.2 WNW 6 8 1015.0 - 0.0 - - - - - - -
02/07:00am 10.3 WNW 6 8 1014.8 - 0.0 - - - - - - -
02/06:30am 10.6 W 6 7 1014.4 - 0.0 - - - - - - -
02/06:00am 11.1 NW 7 8 1014.4 - 0.0 - - - - - - -
02/05:30am 11.6 WNW 6 7 1014.3 - 0.0 - - - - - - -
02/05:00am 11.0 NW 6 7 1014.2 - 0.0 - - - - - - -
02/04:30am 11.3 WNW 6 6 1014.1 - 0.0 - - - - - - -
02/04:00am 11.4 WNW 5 6 1013.9 - 0.0 - - - - - - -
02/03:30am 11.5 NW 5 6 1013.6 - 0.0 - - - - - - -
02/03:00am 12.4 NW 4 6 1013.5 - 0.0 Fine Clear 30 1 1.0 - -
02/02:30am 11.7 NW 4 5 1013.5 - 0.0 - - - - - - -
02/02:00am 10.9 N 5 6 1013.5 - 0.0 - - - - - - -
02/01:30am 11.0 N 5 6 1013.4 - 0.0 - - - - - - -
02/01:00am 11.5 N 3 4 1013.5 - 0.0 - - - - - - -
02/12:30am 11.7 NNW 5 6 1013.6 - 0.0 - - - - - - -
02/12:00am 12.9 W 8 12 1013.5 - 0.0 - - - - - - -
 
Date/Time
EST
Temp

°C
Wind Pressure Rain
since 9am
mm
Weather Cloud Vis
km
Sea
Height
m
Swell
Dir
 
Speed
knots
Gust
knots
hPa Trend Height
m
Period
s
Dir
01/11:30pm 13.6 WSW 14 16 1013.1 - 0.0 - - - - - - -
01/11:00pm 13.7 WSW 15 19 1013.2 - 0.0 - - - - - - -
01/10:30pm 14.0 WSW 16 21 1013.2 - 0.0 - - - - - - -
01/10:00pm 14.3 W 19 24 1013.1 - 0.0 - - - - - - -
01/09:30pm 14.3 W 18 22 1012.8 - 0.0 - - - - - - -
01/09:00pm 14.5 WSW 21 26 1012.3 - 0.0 Fine Clear 30 2 1.0 - -
01/08:30pm 14.6 WSW 22 28 1012.2 - 0.0 - - - - - - -
01/08:00pm 14.7 WSW 25 31 1011.5 - 0.0 - - - - - - -
01/07:58pm 14.8 WSW 25 35 1011.5 - 0.0 - - - - - - -
01/07:30pm 15.3 WSW 28 37 1010.9 - 0.0 - - - - - - -
01/07:21pm 15.3 WSW 27 37 1010.7 - 0.0 - - - - - - -
01/07:00pm 15.3 WSW 29 36 1010.6 - 0.0 - - - - - - -
01/06:44pm 15.5 WSW 27 37 1010.3 - 0.0 - - - - - - -
01/06:30pm 15.3 WSW 26 32 1010.2 - 0.0 - - - - - - -
01/06:14pm 15.4 WSW 27 37 1010.1 - 0.0 - - - - - - -
01/06:00pm 15.5 WSW 30 36 1009.4 - 0.0 - - - - - - -
01/05:46pm 15.4 SW 33 43 1009.2 - 0.0 - - - - - - -
01/05:30pm 15.8 WSW 35 43 1008.7 - 0.0 - - - - - - -
01/05:13pm 15.8 SW 38 48 1007.9 - 0.0 - - - - - - -
01/05:00pm 16.3 SW 37 46 1007.5 - 0.0 - - - - - - -
01/04:55pm 16.3 SW 36 46 1007.3 - 0.0 - - - - - - -
01/04:51pm 17.0 SW 35 40 1007.5 - 0.0 - - - - - - -
01/04:49pm 19.0 WSW 23 39 1007.6 - 0.0 - - - - - - -
01/04:30pm 19.9 W 19 25 1006.7 - 0.0 - - - - - - -
01/04:00pm 20.2 WNW 20 30 1005.9 - 0.0 - - - - - - -
01/03:36pm 21.0 WNW 21 31 1005.4 - 0.0 - - - - - - -
01/03:30pm 21.4 WNW 22 31 1005.2 - 0.0 - - - - - - -
01/03:19pm 21.6 W 21 31 1005.0 - 0.0 - - - - - - -
01/03:00pm 21.5 W 20 28 1004.5 - 0.0 - Partly cloudy 30 2 1.0 - -
01/02:30pm 22.2 W 22 29 1003.9 - 0.0 - - - - - - -
01/02:21pm 22.1 W 19 29 1003.8 - 0.0 - - - - - - -
01/02:00pm 21.6 W 17 23 1003.6 - 0.0 - - - - - - -
01/01:50pm 22.0 W 19 29 1003.4 - 0.0 - - - - - - -
01/01:30pm 22.9 W 20 28 1003.2 - 0.0 - - - - - - -
01/01:04pm 23.8 WNW 17 27 1003.3 - 0.0 - - - - - - -
01/01:00pm 23.8 WNW 17 25 1003.2 - 0.0 - - - - - - -
01/12:53pm 22.8 WNW 15 25 1003.2 - 0.0 - - - - - - -
01/12:30pm 22.1 W 11 15 1003.2 - 0.0 - - - - - - -
01/12:00pm 21.6 SW 7 19 1003.6 - 0.0 - - - - - - -
01/11:30am 20.3 ENE 6 8 1004.1 - 0.0 - - - - - - -
01/11:00am 19.4 SSE 4 6 1004.5 - 0.0 - - - - - - -
01/10:30am 18.8 SE 5 8 1005.0 - 0.0 - - - - - - -
01/10:00am 19.0 S 6 8 1005.6 - 0.0 - - - - - - -
01/09:30am 19.2 SSW 8 10 1005.4 - 0.0 - - - - - - -
01/09:10am 18.7 SW 15 25 1006.0 - 0.0 - - - - - - -
01/09:00am 18.4 SW 18 23 1006.6 - 0.4 Drizzle Cloudy 10 1 1.0 - -
01/08:30am 18.6 NNE 16 19 1005.1 - 0.4 - - - - - - -
01/08:00am 18.0 NNE 18 23 1005.1 - 0.4 - - - - - - -
01/07:30am 17.6 NNE 16 19 1005.3 - 0.4 - - - - - - -
01/07:00am 17.8 NNE 19 22 1005.2 - 0.4 - - - - - - -
01/06:30am 17.5 NNE 12 15 1005.4 - 0.4 - - - - - - -

Other Formats:

Comma delimited format used in spreadsheet applications
http://www.bom.gov.au/fwo/IDN60701/IDN60701.94933.axf

JavaScript Object Notation format (JSON) in row-major order
http://www.bom.gov.au/fwo/IDN60701/IDN60701.94933.json